SBOSBO PMI / LEPA
Speedbird OnlineSpeedbird Online PMI / LEPA

Palma De Mallorca Airport
00:55 18.9°C

Location Palma de Mallorca, Spain
Latitude: 39.551700592
Longitude: 2.73881006241
Local Time 00:55 on 21 May 2024
UTC +2 hours (Europe/Madrid)
Currency £1 equals EUR 1.17
METAR LEPA 202230Z 25008KT 9999 FEW020 19/17 Q1012 NOSIG
TAF TAF COR LEPA 201757Z 2018/2118 30005KT 9999 FEW020 TX25/2112Z TN14/2105Z BECMG 2018/2020 VRB03KT TEMPO 2018/2102 25006KT PROB30 TEMPO 2103/2106 4000 BR BECMG 2108/2110 21010KT
Weather As Of 21 May 2024 00:55
Description Few clouds
Wind 15 km/h from West (250°)
Cloud Cover 20%
Precipitation Rain: none, Snow: none
Sunrise 06:29
Sunset 21:01
NOTAM 27 active NOTAM
Rotations During the last 90 days there were
81 flights from LHR
74 flights from LGW
33 flights from LCY
2 flights from SOU
1 flights from GCI
78 flights to LHR
75 flights to LGW
38 flights to LCY
2 flights to SOU
1 flights to GCI
Lounges Mediterraneo Lounge, Departures
Valldemosa Lounge, Departures
Llevant Lounge, Departures - No Schengen flights
Formentor Lounge, Terminal D
Web Airport Website | Wikipedia
Codes IATA: PMI
ICAO: LEPA
Altitude 8 Meter / 27 Feet
Distance 1,345 KM / 836 Miles
from London.
Runways
RunwayLength (m)Surface
06L3270Asphalt
06R3000Asphalt
24L3000Asphalt
24R3270Asphalt
Radio
TypeDescriptionFrequency
APPAPP118.95
ATISATIS119.25
CLDCLNC DEL121.6
GNDGND121.7
OPSOPS130.25
TWRTWR118.3
Live ATC



Support Speedbird Online

© 2017-2024 Speedbird Online